sensor_id;sensor_type;location;lat;lon;timestamp;P1;durP1;ratioP1;P2;durP2;ratioP2
29382;SDS011;16365;51.598;7.668;2023-03-24T00:01:42;5.85;;;2.10;;
29382;SDS011;16365;51.598;7.668;2023-03-24T00:04:08;6.30;;;1.92;;
29382;SDS011;16365;51.598;7.668;2023-03-24T00:06:35;4.95;;;2.00;;
29382;SDS011;16365;51.598;7.668;2023-03-24T00:09:02;3.72;;;1.90;;
29382;SDS011;16365;51.598;7.668;2023-03-24T00:11:29;6.38;;;2.20;;
29382;SDS011;16365;51.598;7.668;2023-03-24T00:14:00;4.50;;;1.90;;
29382;SDS011;16365;51.598;7.668;2023-03-24T00:16:28;4.25;;;1.70;;
29382;SDS011;16365;51.598;7.668;2023-03-24T00:18:55;4.72;;;2.00;;
29382;SDS011;16365;51.598;7.668;2023-03-24T00:21:22;4.63;;;2.00;;
29382;SDS011;16365;51.598;7.668;2023-03-24T00:23:50;6.50;;;1.88;;
29382;SDS011;16365;51.598;7.668;2023-03-24T00:26:20;4.03;;;1.80;;
29382;SDS011;16365;51.598;7.668;2023-03-24T00:28:47;3.50;;;1.50;;
29382;SDS011;16365;51.598;7.668;2023-03-24T00:31:15;4.72;;;1.95;;
29382;SDS011;16365;51.598;7.668;2023-03-24T00:33:43;6.78;;;1.83;;
29382;SDS011;16365;51.598;7.668;2023-03-24T00:36:16;3.38;;;1.73;;
29382;SDS011;16365;51.598;7.668;2023-03-24T00:38:45;4.05;;;1.58;;
29382;SDS011;16365;51.598;7.668;2023-03-24T00:41:13;6.95;;;2.55;;
29382;SDS011;16365;51.598;7.668;2023-03-24T00:43:43;4.43;;;1.83;;
29382;SDS011;16365;51.598;7.668;2023-03-24T00:46:10;5.07;;;2.08;;
29382;SDS011;16365;51.598;7.668;2023-03-24T00:48:39;4.18;;;1.73;;
29382;SDS011;16365;51.598;7.668;2023-03-24T00:51:07;3.70;;;1.70;;
29382;SDS011;16365;51.598;7.668;2023-03-24T00:53:36;6.78;;;1.67;;
29382;SDS011;16365;51.598;7.668;2023-03-24T00:56:08;4.95;;;1.65;;
29382;SDS011;16365;51.598;7.668;2023-03-24T00:58:36;4.78;;;1.65;;
29382;SDS011;16365;51.598;7.668;2023-03-24T01:01:03;3.85;;;1.77;;
29382;SDS011;16365;51.598;7.668;2023-03-24T01:03:32;5.85;;;1.50;;
29382;SDS011;16365;51.598;7.668;2023-03-24T01:06:00;6.70;;;1.80;;
29382;SDS011;16365;51.598;7.668;2023-03-24T01:08:29;2.80;;;1.60;;
29382;SDS011;16365;51.598;7.668;2023-03-24T01:10:56;2.35;;;1.50;;
29382;SDS011;16365;51.598;7.668;2023-03-24T01:13:24;3.67;;;1.40;;
29382;SDS011;16365;51.598;7.668;2023-03-24T01:15:54;4.80;;;1.90;;
29382;SDS011;16365;51.598;7.668;2023-03-24T01:18:22;3.67;;;1.90;;
29382;SDS011;16365;51.598;7.668;2023-03-24T01:20:49;5.50;;;2.70;;
29382;SDS011;16365;51.598;7.668;2023-03-24T01:23:19;4.00;;;1.92;;
29382;SDS011;16365;51.598;7.668;2023-03-24T01:25:48;4.22;;;1.95;;
29382;SDS011;16365;51.598;7.668;2023-03-24T01:30:48;3.20;;;1.60;;
29382;SDS011;16365;51.598;7.668;2023-03-24T01:33:15;2.35;;;1.52;;
29382;SDS011;16365;51.598;7.668;2023-03-24T01:35:41;4.05;;;1.90;;
29382;SDS011;16365;51.598;7.668;2023-03-24T01:38:09;5.85;;;1.60;;
29382;SDS011;16365;51.598;7.668;2023-03-24T01:43:06;3.30;;;1.67;;
29382;SDS011;16365;51.598;7.668;2023-03-24T01:45:48;3.17;;;1.80;;
29382;SDS011;16365;51.598;7.668;2023-03-24T01:48:25;4.40;;;2.08;;
29382;SDS011;16365;51.598;7.668;2023-03-24T01:50:58;2.85;;;2.30;;
29382;SDS011;16365;51.598;7.668;2023-03-24T01:53:29;3.67;;;2.00;;
29382;SDS011;16365;51.598;7.668;2023-03-24T01:55:58;6.68;;;2.15;;
29382;SDS011;16365;51.598;7.668;2023-03-24T01:58:28;5.32;;;1.67;;
29382;SDS011;16365;51.598;7.668;2023-03-24T02:00:57;2.97;;;2.10;;
29382;SDS011;16365;51.598;7.668;2023-03-24T02:03:24;5.72;;;2.00;;
29382;SDS011;16365;51.598;7.668;2023-03-24T02:05:55;3.45;;;2.20;;
29382;SDS011;16365;51.598;7.668;2023-03-24T02:08:35;4.00;;;2.03;;
29382;SDS011;16365;51.598;7.668;2023-03-24T02:11:05;4.40;;;2.25;;
29382;SDS011;16365;51.598;7.668;2023-03-24T02:13:32;3.65;;;1.95;;
29382;SDS011;16365;51.598;7.668;2023-03-24T02:18:59;2.90;;;1.98;;
29382;SDS011;16365;51.598;7.668;2023-03-24T02:21:49;3.88;;;2.20;;
29382;SDS011;16365;51.598;7.668;2023-03-24T02:30:02;3.53;;;2.20;;
29382;SDS011;16365;51.598;7.668;2023-03-24T02:32:57;2.45;;;2.00;;
29382;SDS011;16365;51.598;7.668;2023-03-24T02:35:48;2.97;;;1.90;;
29382;SDS011;16365;51.598;7.668;2023-03-24T02:39:04;3.20;;;2.20;;
29382;SDS011;16365;51.598;7.668;2023-03-24T02:41:52;5.95;;;2.03;;
29382;SDS011;16365;51.598;7.668;2023-03-24T02:47:17;4.50;;;1.98;;
29382;SDS011;16365;51.598;7.668;2023-03-24T02:53:00;5.57;;;2.25;;
29382;SDS011;16365;51.598;7.668;2023-03-24T02:55:45;2.90;;;2.08;;
29382;SDS011;16365;51.598;7.668;2023-03-24T03:01:10;5.90;;;2.20;;
29382;SDS011;16365;51.598;7.668;2023-03-24T03:03:45;4.32;;;2.03;;
29382;SDS011;16365;51.598;7.668;2023-03-24T03:06:20;3.60;;;2.20;;
29382;SDS011;16365;51.598;7.668;2023-03-24T03:08:51;3.80;;;2.58;;
29382;SDS011;16365;51.598;7.668;2023-03-24T03:11:20;4.35;;;2.55;;
29382;SDS011;16365;51.598;7.668;2023-03-24T03:13:51;3.35;;;2.25;;
29382;SDS011;16365;51.598;7.668;2023-03-24T03:16:23;3.42;;;2.38;;
29382;SDS011;16365;51.598;7.668;2023-03-24T03:19:00;5.78;;;2.83;;
29382;SDS011;16365;51.598;7.668;2023-03-24T03:21:31;2.92;;;2.17;;
29382;SDS011;16365;51.598;7.668;2023-03-24T03:24:05;4.43;;;2.45;;
29382;SDS011;16365;51.598;7.668;2023-03-24T03:26:36;4.10;;;2.65;;
29382;SDS011;16365;51.598;7.668;2023-03-24T03:29:04;4.60;;;2.85;;
29382;SDS011;16365;51.598;7.668;2023-03-24T03:31:39;5.53;;;3.15;;
29382;SDS011;16365;51.598;7.668;2023-03-24T03:37:01;3.28;;;2.50;;
29382;SDS011;16365;51.598;7.668;2023-03-24T03:39:33;3.22;;;2.58;;
29382;SDS011;16365;51.598;7.668;2023-03-24T03:42:06;5.35;;;2.63;;
29382;SDS011;16365;51.598;7.668;2023-03-24T03:44:32;5.90;;;2.80;;
29382;SDS011;16365;51.598;7.668;2023-03-24T03:46:59;5.13;;;2.55;;
29382;SDS011;16365;51.598;7.668;2023-03-24T03:49:25;4.75;;;2.60;;
29382;SDS011;16365;51.598;7.668;2023-03-24T03:51:52;3.28;;;2.35;;
29382;SDS011;16365;51.598;7.668;2023-03-24T03:54:20;4.88;;;2.55;;
29382;SDS011;16365;51.598;7.668;2023-03-24T03:56:50;3.28;;;2.30;;
29382;SDS011;16365;51.598;7.668;2023-03-24T03:59:34;3.88;;;2.47;;
29382;SDS011;16365;51.598;7.668;2023-03-24T04:05:15;5.63;;;2.80;;
29382;SDS011;16365;51.598;7.668;2023-03-24T04:28:04;7.47;;;2.75;;
29382;SDS011;16365;51.598;7.668;2023-03-24T04:31:02;5.22;;;2.80;;
29382;SDS011;16365;51.598;7.668;2023-03-24T04:33:57;4.32;;;2.70;;
29382;SDS011;16365;51.598;7.668;2023-03-24T04:36:32;4.22;;;2.42;;
29382;SDS011;16365;51.598;7.668;2023-03-24T04:39:12;4.30;;;2.78;;
29382;SDS011;16365;51.598;7.668;2023-03-24T04:41:42;4.72;;;2.90;;
29382;SDS011;16365;51.598;7.668;2023-03-24T04:44:10;5.07;;;3.08;;
29382;SDS011;16365;51.598;7.668;2023-03-24T04:46:37;4.43;;;3.00;;
29382;SDS011;16365;51.598;7.668;2023-03-24T04:49:04;5.55;;;2.78;;
29382;SDS011;16365;51.598;7.668;2023-03-24T04:51:31;5.50;;;3.10;;
29382;SDS011;16365;51.598;7.668;2023-03-24T04:53:58;5.05;;;2.90;;
29382;SDS011;16365;51.598;7.668;2023-03-24T04:56:29;5.53;;;3.03;;
29382;SDS011;16365;51.598;7.668;2023-03-24T04:58:59;6.03;;;2.70;;
29382;SDS011;16365;51.598;7.668;2023-03-24T05:01:26;4.70;;;2.75;;
29382;SDS011;16365;51.598;7.668;2023-03-24T05:03:56;4.47;;;3.03;;
29382;SDS011;16365;51.598;7.668;2023-03-24T05:06:24;4.97;;;2.00;;
29382;SDS011;16365;51.598;7.668;2023-03-24T05:08:51;3.55;;;2.47;;
29382;SDS011;16365;51.598;7.668;2023-03-24T05:11:18;3.75;;;2.22;;
29382;SDS011;16365;51.598;7.668;2023-03-24T05:13:45;3.27;;;1.80;;
29382;SDS011;16365;51.598;7.668;2023-03-24T05:16:13;2.85;;;1.70;;
29382;SDS011;16365;51.598;7.668;2023-03-24T05:18:40;2.85;;;1.70;;
29382;SDS011;16365;51.598;7.668;2023-03-24T05:21:06;2.25;;;1.50;;
29382;SDS011;16365;51.598;7.668;2023-03-24T05:23:33;2.60;;;1.23;;
29382;SDS011;16365;51.598;7.668;2023-03-24T05:26:00;1.98;;;1.30;;
29382;SDS011;16365;51.598;7.668;2023-03-24T05:28:27;2.63;;;1.38;;
29382;SDS011;16365;51.598;7.668;2023-03-24T05:30:53;4.15;;;1.50;;
29382;SDS011;16365;51.598;7.668;2023-03-24T05:33:20;2.53;;;1.45;;
29382;SDS011;16365;51.598;7.668;2023-03-24T05:35:47;2.63;;;1.77;;
29382;SDS011;16365;51.598;7.668;2023-03-24T05:38:13;2.58;;;1.65;;
29382;SDS011;16365;51.598;7.668;2023-03-24T05:40:40;2.58;;;1.70;;
29382;SDS011;16365;51.598;7.668;2023-03-24T05:43:07;6.85;;;2.03;;
29382;SDS011;16365;51.598;7.668;2023-03-24T05:45:33;4.70;;;2.40;;
29382;SDS011;16365;51.598;7.668;2023-03-24T05:48:00;2.92;;;2.28;;
29382;SDS011;16365;51.598;7.668;2023-03-24T05:50:27;3.50;;;2.47;;
29382;SDS011;16365;51.598;7.668;2023-03-24T05:52:53;4.03;;;2.70;;
29382;SDS011;16365;51.598;7.668;2023-03-24T05:55:19;5.15;;;2.50;;
29382;SDS011;16365;51.598;7.668;2023-03-24T05:57:47;4.20;;;2.60;;
29382;SDS011;16365;51.598;7.668;2023-03-24T06:00:13;3.17;;;2.60;;
29382;SDS011;16365;51.598;7.668;2023-03-24T06:02:43;4.28;;;2.63;;
29382;SDS011;16365;51.598;7.668;2023-03-24T06:05:11;6.68;;;3.05;;
29382;SDS011;16365;51.598;7.668;2023-03-24T06:07:39;4.50;;;2.60;;
29382;SDS011;16365;51.598;7.668;2023-03-24T06:10:08;5.75;;;2.90;;
29382;SDS011;16365;51.598;7.668;2023-03-24T06:12:36;3.35;;;2.17;;
29382;SDS011;16365;51.598;7.668;2023-03-24T06:15:04;2.90;;;1.98;;
29382;SDS011;16365;51.598;7.668;2023-03-24T06:17:30;7.30;;;2.33;;
29382;SDS011;16365;51.598;7.668;2023-03-24T06:19:57;6.10;;;2.42;;
29382;SDS011;16365;51.598;7.668;2023-03-24T06:22:31;4.00;;;2.00;;
29382;SDS011;16365;51.598;7.668;2023-03-24T06:24:58;8.03;;;2.10;;
29382;SDS011;16365;51.598;7.668;2023-03-24T06:27:25;7.03;;;2.10;;
29382;SDS011;16365;51.598;7.668;2023-03-24T06:29:58;6.72;;;1.83;;
29382;SDS011;16365;51.598;7.668;2023-03-24T06:32:25;5.97;;;2.47;;
29382;SDS011;16365;51.598;7.668;2023-03-24T06:34:52;6.20;;;2.70;;
29382;SDS011;16365;51.598;7.668;2023-03-24T06:37:22;6.05;;;2.72;;
29382;SDS011;16365;51.598;7.668;2023-03-24T06:39:48;7.22;;;3.17;;
29382;SDS011;16365;51.598;7.668;2023-03-24T06:42:15;6.05;;;2.50;;
29382;SDS011;16365;51.598;7.668;2023-03-24T06:44:43;8.30;;;3.20;;
29382;SDS011;16365;51.598;7.668;2023-03-24T06:47:10;8.68;;;2.95;;
29382;SDS011;16365;51.598;7.668;2023-03-24T06:49:36;6.95;;;2.63;;
29382;SDS011;16365;51.598;7.668;2023-03-24T06:52:03;9.10;;;3.15;;
29382;SDS011;16365;51.598;7.668;2023-03-24T06:54:29;11.20;;;3.08;;
29382;SDS011;16365;51.598;7.668;2023-03-24T06:56:56;9.10;;;2.95;;
29382;SDS011;16365;51.598;7.668;2023-03-24T06:59:23;9.48;;;2.90;;
29382;SDS011;16365;51.598;7.668;2023-03-24T07:01:50;6.47;;;2.63;;
29382;SDS011;16365;51.598;7.668;2023-03-24T07:04:17;11.90;;;3.57;;
29382;SDS011;16365;51.598;7.668;2023-03-24T07:06:44;12.02;;;2.72;;
29382;SDS011;16365;51.598;7.668;2023-03-24T07:09:30;9.65;;;2.80;;
29382;SDS011;16365;51.598;7.668;2023-03-24T07:11:57;15.15;;;2.70;;
29382;SDS011;16365;51.598;7.668;2023-03-24T07:14:24;8.70;;;3.00;;
29382;SDS011;16365;51.598;7.668;2023-03-24T07:16:51;9.20;;;2.80;;
29382;SDS011;16365;51.598;7.668;2023-03-24T07:19:18;12.00;;;3.13;;
29382;SDS011;16365;51.598;7.668;2023-03-24T07:21:45;7.63;;;2.72;;
29382;SDS011;16365;51.598;7.668;2023-03-24T07:24:16;9.95;;;2.75;;
29382;SDS011;16365;51.598;7.668;2023-03-24T07:26:43;9.55;;;2.72;;
29382;SDS011;16365;51.598;7.668;2023-03-24T07:29:09;12.20;;;2.83;;
29382;SDS011;16365;51.598;7.668;2023-03-24T07:31:36;13.30;;;3.67;;
29382;SDS011;16365;51.598;7.668;2023-03-24T07:34:04;5.53;;;2.38;;
29382;SDS011;16365;51.598;7.668;2023-03-24T07:36:31;15.25;;;2.42;;
29382;SDS011;16365;51.598;7.668;2023-03-24T07:38:58;8.10;;;2.45;;
29382;SDS011;16365;51.598;7.668;2023-03-24T07:41:24;6.88;;;2.88;;
29382;SDS011;16365;51.598;7.668;2023-03-24T07:43:52;6.70;;;2.17;;
29382;SDS011;16365;51.598;7.668;2023-03-24T07:46:19;8.43;;;2.15;;
29382;SDS011;16365;51.598;7.668;2023-03-24T07:48:45;13.30;;;3.22;;
29382;SDS011;16365;51.598;7.668;2023-03-24T07:51:12;8.18;;;3.75;;
29382;SDS011;16365;51.598;7.668;2023-03-24T07:53:39;10.05;;;3.17;;
29382;SDS011;16365;51.598;7.668;2023-03-24T07:56:05;7.15;;;3.10;;
29382;SDS011;16365;51.598;7.668;2023-03-24T07:58:33;9.05;;;3.25;;
29382;SDS011;16365;51.598;7.668;2023-03-24T08:00:59;12.85;;;3.60;;
29382;SDS011;16365;51.598;7.668;2023-03-24T08:03:25;10.02;;;3.55;;
29382;SDS011;16365;51.598;7.668;2023-03-24T08:05:53;12.45;;;4.13;;
29382;SDS011;16365;51.598;7.668;2023-03-24T08:08:20;11.70;;;3.60;;
29382;SDS011;16365;51.598;7.668;2023-03-24T08:10:47;7.38;;;3.25;;
29382;SDS011;16365;51.598;7.668;2023-03-24T08:13:15;7.35;;;2.60;;
29382;SDS011;16365;51.598;7.668;2023-03-24T08:15:42;10.43;;;2.97;;
29382;SDS011;16365;51.598;7.668;2023-03-24T08:18:08;11.52;;;2.90;;
29382;SDS011;16365;51.598;7.668;2023-03-24T08:20:35;9.55;;;2.25;;
29382;SDS011;16365;51.598;7.668;2023-03-24T08:23:02;9.77;;;2.45;;
29382;SDS011;16365;51.598;7.668;2023-03-24T08:25:30;10.25;;;2.28;;
29382;SDS011;16365;51.598;7.668;2023-03-24T08:27:56;20.95;;;3.05;;
29382;SDS011;16365;51.598;7.668;2023-03-24T08:30:23;9.00;;;1.88;;
29382;SDS011;16365;51.598;7.668;2023-03-24T08:32:54;8.32;;;2.13;;
29382;SDS011;16365;51.598;7.668;2023-03-24T08:35:29;15.40;;;2.53;;
29382;SDS011;16365;51.598;7.668;2023-03-24T08:37:58;12.57;;;2.28;;
29382;SDS011;16365;51.598;7.668;2023-03-24T08:40:26;14.90;;;3.13;;
29382;SDS011;16365;51.598;7.668;2023-03-24T08:42:56;11.18;;;2.35;;
29382;SDS011;16365;51.598;7.668;2023-03-24T08:45:26;12.43;;;2.20;;
29382;SDS011;16365;51.598;7.668;2023-03-24T08:47:56;12.00;;;2.53;;
29382;SDS011;16365;51.598;7.668;2023-03-24T08:50:25;12.85;;;2.58;;
29382;SDS011;16365;51.598;7.668;2023-03-24T08:52:56;9.43;;;2.35;;
29382;SDS011;16365;51.598;7.668;2023-03-24T08:55:23;9.23;;;1.98;;
29382;SDS011;16365;51.598;7.668;2023-03-24T08:57:50;11.57;;;2.55;;
29382;SDS011;16365;51.598;7.668;2023-03-24T09:00:18;9.60;;;2.40;;
29382;SDS011;16365;51.598;7.668;2023-03-24T09:02:47;11.05;;;2.17;;
29382;SDS011;16365;51.598;7.668;2023-03-24T09:05:17;9.45;;;2.00;;
29382;SDS011;16365;51.598;7.668;2023-03-24T09:07:54;13.20;;;2.50;;
29382;SDS011;16365;51.598;7.668;2023-03-24T09:10:21;12.00;;;2.47;;
29382;SDS011;16365;51.598;7.668;2023-03-24T09:12:48;10.40;;;2.08;;
29382;SDS011;16365;51.598;7.668;2023-03-24T09:15:15;12.45;;;2.90;;
29382;SDS011;16365;51.598;7.668;2023-03-24T09:17:42;9.73;;;2.30;;
29382;SDS011;16365;51.598;7.668;2023-03-24T09:20:11;7.65;;;1.70;;
29382;SDS011;16365;51.598;7.668;2023-03-24T09:22:40;8.70;;;2.33;;
29382;SDS011;16365;51.598;7.668;2023-03-24T09:25:11;7.75;;;2.03;;
29382;SDS011;16365;51.598;7.668;2023-03-24T09:27:40;8.85;;;2.50;;
29382;SDS011;16365;51.598;7.668;2023-03-24T09:30:07;10.07;;;2.45;;
29382;SDS011;16365;51.598;7.668;2023-03-24T09:32:35;8.95;;;2.92;;
29382;SDS011;16365;51.598;7.668;2023-03-24T09:35:02;9.10;;;2.70;;
29382;SDS011;16365;51.598;7.668;2023-03-24T09:37:29;7.97;;;2.53;;
29382;SDS011;16365;51.598;7.668;2023-03-24T09:39:57;11.40;;;3.40;;
29382;SDS011;16365;51.598;7.668;2023-03-24T09:42:28;8.00;;;2.63;;
29382;SDS011;16365;51.598;7.668;2023-03-24T09:44:58;14.10;;;3.40;;
29382;SDS011;16365;51.598;7.668;2023-03-24T09:50:05;14.32;;;2.78;;
29382;SDS011;16365;51.598;7.668;2023-03-24T09:52:41;9.55;;;2.67;;
29382;SDS011;16365;51.598;7.668;2023-03-24T09:55:15;13.05;;;3.05;;
29382;SDS011;16365;51.598;7.668;2023-03-24T09:57:47;12.20;;;2.35;;
29382;SDS011;16365;51.598;7.668;2023-03-24T10:02:45;10.25;;;1.92;;
29382;SDS011;16365;51.598;7.668;2023-03-24T10:05:16;14.40;;;2.40;;
29382;SDS011;16365;51.598;7.668;2023-03-24T10:08:09;11.15;;;2.63;;
29382;SDS011;16365;51.598;7.668;2023-03-24T10:21:26;15.30;;;2.50;;
29382;SDS011;16365;51.598;7.668;2023-03-24T10:23:57;14.68;;;3.25;;
29382;SDS011;16365;51.598;7.668;2023-03-24T10:26:57;11.85;;;2.72;;
29382;SDS011;16365;51.598;7.668;2023-03-24T10:29:32;7.30;;;2.53;;
29382;SDS011;16365;51.598;7.668;2023-03-24T10:32:02;13.68;;;3.17;;
29382;SDS011;16365;51.598;7.668;2023-03-24T10:34:34;18.75;;;3.50;;
29382;SDS011;16365;51.598;7.668;2023-03-24T10:37:03;14.68;;;2.83;;
29382;SDS011;16365;51.598;7.668;2023-03-24T10:39:30;9.63;;;3.15;;
29382;SDS011;16365;51.598;7.668;2023-03-24T10:42:12;14.07;;;3.10;;
29382;SDS011;16365;51.598;7.668;2023-03-24T10:44:41;11.68;;;3.78;;
29382;SDS011;16365;51.598;7.668;2023-03-24T10:47:08;10.30;;;2.72;;
29382;SDS011;16365;51.598;7.668;2023-03-24T10:49:48;11.00;;;2.50;;
29382;SDS011;16365;51.598;7.668;2023-03-24T10:52:18;8.85;;;2.50;;
29382;SDS011;16365;51.598;7.668;2023-03-24T10:55:03;7.43;;;2.40;;
29382;SDS011;16365;51.598;7.668;2023-03-24T10:57:32;9.02;;;2.63;;
29382;SDS011;16365;51.598;7.668;2023-03-24T11:00:06;14.20;;;2.53;;
29382;SDS011;16365;51.598;7.668;2023-03-24T11:02:42;13.10;;;2.53;;
29382;SDS011;16365;51.598;7.668;2023-03-24T11:05:14;14.38;;;2.60;;
29382;SDS011;16365;51.598;7.668;2023-03-24T11:07:44;13.25;;;2.50;;
29382;SDS011;16365;51.598;7.668;2023-03-24T11:10:13;14.98;;;2.80;;
29382;SDS011;16365;51.598;7.668;2023-03-24T11:15:24;7.45;;;2.42;;
29382;SDS011;16365;51.598;7.668;2023-03-24T11:20:43;14.75;;;3.17;;
29382;SDS011;16365;51.598;7.668;2023-03-24T11:23:26;18.10;;;3.22;;
29382;SDS011;16365;51.598;7.668;2023-03-24T11:26:13;12.93;;;3.45;;
29382;SDS011;16365;51.598;7.668;2023-03-24T11:28:44;12.50;;;2.50;;
29382;SDS011;16365;51.598;7.668;2023-03-24T11:31:19;17.60;;;3.10;;
29382;SDS011;16365;51.598;7.668;2023-03-24T11:34:36;10.20;;;2.55;;
29382;SDS011;16365;51.598;7.668;2023-03-24T11:39:38;11.10;;;2.53;;
29382;SDS011;16365;51.598;7.668;2023-03-24T11:42:16;13.43;;;2.40;;
29382;SDS011;16365;51.598;7.668;2023-03-24T11:44:44;12.90;;;2.33;;
29382;SDS011;16365;51.598;7.668;2023-03-24T11:47:18;9.25;;;2.30;;
29382;SDS011;16365;51.598;7.668;2023-03-24T11:50:12;11.73;;;2.38;;
29382;SDS011;16365;51.598;7.668;2023-03-24T11:53:02;8.73;;;2.10;;
29382;SDS011;16365;51.598;7.668;2023-03-24T11:55:51;8.82;;;1.80;;
29382;SDS011;16365;51.598;7.668;2023-03-24T11:58:28;7.90;;;1.90;;
29382;SDS011;16365;51.598;7.668;2023-03-24T12:01:03;11.98;;;2.10;;
29382;SDS011;16365;51.598;7.668;2023-03-24T12:03:40;8.68;;;1.95;;
29382;SDS011;16365;51.598;7.668;2023-03-24T12:06:15;10.50;;;2.00;;
29382;SDS011;16365;51.598;7.668;2023-03-24T12:20:30;11.50;;;1.92;;
29382;SDS011;16365;51.598;7.668;2023-03-24T12:23:12;14.10;;;1.92;;
29382;SDS011;16365;51.598;7.668;2023-03-24T12:25:59;9.30;;;1.98;;
29382;SDS011;16365;51.598;7.668;2023-03-24T12:31:53;7.70;;;2.10;;
29382;SDS011;16365;51.598;7.668;2023-03-24T12:42:43;5.40;;;1.52;;
29382;SDS011;16365;51.598;7.668;2023-03-24T12:45:16;10.02;;;2.28;;
29382;SDS011;16365;51.598;7.668;2023-03-24T12:56:48;12.13;;;1.75;;
29382;SDS011;16365;51.598;7.668;2023-03-24T13:02:08;5.97;;;2.78;;
29382;SDS011;16365;51.598;7.668;2023-03-24T13:04:45;9.05;;;1.60;;
29382;SDS011;16365;51.598;7.668;2023-03-24T13:07:16;7.43;;;1.70;;
29382;SDS011;16365;51.598;7.668;2023-03-24T13:09:50;9.55;;;1.55;;
29382;SDS011;16365;51.598;7.668;2023-03-24T13:12:26;4.97;;;1.33;;
29382;SDS011;16365;51.598;7.668;2023-03-24T13:17:52;6.93;;;1.35;;
29382;SDS011;16365;51.598;7.668;2023-03-24T13:20:27;9.23;;;2.05;;
29382;SDS011;16365;51.598;7.668;2023-03-24T13:22:58;7.35;;;2.00;;
29382;SDS011;16365;51.598;7.668;2023-03-24T13:25:40;8.40;;;1.85;;
29382;SDS011;16365;51.598;7.668;2023-03-24T13:28:19;8.85;;;2.00;;
29382;SDS011;16365;51.598;7.668;2023-03-24T13:30:51;8.75;;;2.17;;
29382;SDS011;16365;51.598;7.668;2023-03-24T13:33:22;7.90;;;1.83;;
29382;SDS011;16365;51.598;7.668;2023-03-24T13:36:18;10.02;;;1.58;;
29382;SDS011;16365;51.598;7.668;2023-03-24T13:38:58;5.65;;;1.60;;
29382;SDS011;16365;51.598;7.668;2023-03-24T13:41:31;8.77;;;1.90;;
29382;SDS011;16365;51.598;7.668;2023-03-24T13:49:34;6.90;;;1.60;;
29382;SDS011;16365;51.598;7.668;2023-03-24T13:52:02;5.93;;;1.73;;
29382;SDS011;16365;51.598;7.668;2023-03-24T13:54:33;8.07;;;1.92;;
29382;SDS011;16365;51.598;7.668;2023-03-24T13:57:12;8.35;;;2.10;;
29382;SDS011;16365;51.598;7.668;2023-03-24T14:00:00;4.90;;;1.20;;
29382;SDS011;16365;51.598;7.668;2023-03-24T14:02:41;6.47;;;1.55;;
29382;SDS011;16365;51.598;7.668;2023-03-24T14:05:38;5.78;;;1.45;;
29382;SDS011;16365;51.598;7.668;2023-03-24T14:08:33;5.63;;;1.38;;
29382;SDS011;16365;51.598;7.668;2023-03-24T14:22:03;10.27;;;1.60;;
29382;SDS011;16365;51.598;7.668;2023-03-24T14:24:36;10.77;;;2.95;;
29382;SDS011;16365;51.598;7.668;2023-03-24T14:27:49;9.02;;;1.48;;
29382;SDS011;16365;51.598;7.668;2023-03-24T14:32:37;9.40;;;1.70;;
29382;SDS011;16365;51.598;7.668;2023-03-24T14:35:18;7.90;;;1.70;;
29382;SDS011;16365;51.598;7.668;2023-03-24T14:37:51;9.85;;;1.67;;
29382;SDS011;16365;51.598;7.668;2023-03-24T14:40:24;2.25;;;1.13;;
29382;SDS011;16365;51.598;7.668;2023-03-24T14:42:55;5.30;;;1.40;;
29382;SDS011;16365;51.598;7.668;2023-03-24T14:47:59;8.95;;;1.30;;
29382;SDS011;16365;51.598;7.668;2023-03-24T14:50:28;9.32;;;2.30;;
29382;SDS011;16365;51.598;7.668;2023-03-24T14:52:58;9.82;;;2.00;;
29382;SDS011;16365;51.598;7.668;2023-03-24T14:55:28;8.45;;;1.80;;
29382;SDS011;16365;51.598;7.668;2023-03-24T14:57:58;7.75;;;1.92;;
29382;SDS011;16365;51.598;7.668;2023-03-24T15:00:30;6.60;;;1.35;;
29382;SDS011;16365;51.598;7.668;2023-03-24T15:03:02;9.20;;;2.08;;
29382;SDS011;16365;51.598;7.668;2023-03-24T15:05:43;10.98;;;1.77;;
29382;SDS011;16365;51.598;7.668;2023-03-24T15:08:10;9.15;;;1.90;;
29382;SDS011;16365;51.598;7.668;2023-03-24T15:10:51;6.90;;;1.83;;
29382;SDS011;16365;51.598;7.668;2023-03-24T15:15:50;9.38;;;2.38;;
29382;SDS011;16365;51.598;7.668;2023-03-24T15:18:16;10.27;;;2.00;;
29382;SDS011;16365;51.598;7.668;2023-03-24T15:20:44;7.90;;;2.30;;
29382;SDS011;16365;51.598;7.668;2023-03-24T15:23:18;6.22;;;2.10;;
29382;SDS011;16365;51.598;7.668;2023-03-24T15:25:49;4.97;;;1.63;;
29382;SDS011;16365;51.598;7.668;2023-03-24T15:28:22;3.85;;;1.70;;
29382;SDS011;16365;51.598;7.668;2023-03-24T15:30:52;6.32;;;2.00;;
29382;SDS011;16365;51.598;7.668;2023-03-24T15:33:21;6.43;;;1.80;;
29382;SDS011;16365;51.598;7.668;2023-03-24T15:35:53;8.77;;;2.22;;
29382;SDS011;16365;51.598;7.668;2023-03-24T15:38:29;4.75;;;1.77;;
29382;SDS011;16365;51.598;7.668;2023-03-24T15:41:03;8.25;;;2.22;;
29382;SDS011;16365;51.598;7.668;2023-03-24T15:43:40;6.38;;;1.70;;
29382;SDS011;16365;51.598;7.668;2023-03-24T15:46:28;5.03;;;1.80;;
29382;SDS011;16365;51.598;7.668;2023-03-24T15:48:57;10.48;;;2.00;;
29382;SDS011;16365;51.598;7.668;2023-03-24T15:54:22;8.85;;;2.10;;
29382;SDS011;16365;51.598;7.668;2023-03-24T15:57:00;6.53;;;2.17;;
29382;SDS011;16365;51.598;7.668;2023-03-24T15:59:46;8.93;;;1.80;;
29382;SDS011;16365;51.598;7.668;2023-03-24T16:02:40;8.88;;;2.10;;
29382;SDS011;16365;51.598;7.668;2023-03-24T16:05:18;4.72;;;1.65;;
29382;SDS011;16365;51.598;7.668;2023-03-24T16:07:54;4.10;;;1.90;;
29382;SDS011;16365;51.598;7.668;2023-03-24T16:10:54;4.65;;;2.03;;
29382;SDS011;16365;51.598;7.668;2023-03-24T16:13:23;9.65;;;2.45;;
29382;SDS011;16365;51.598;7.668;2023-03-24T16:15:54;7.80;;;2.00;;
29382;SDS011;16365;51.598;7.668;2023-03-24T16:18:33;6.90;;;1.88;;
29382;SDS011;16365;51.598;7.668;2023-03-24T16:21:09;5.07;;;2.00;;
29382;SDS011;16365;51.598;7.668;2023-03-24T16:23:39;5.38;;;1.80;;
29382;SDS011;16365;51.598;7.668;2023-03-24T16:26:10;7.03;;;2.33;;
29382;SDS011;16365;51.598;7.668;2023-03-24T16:28:39;7.97;;;1.90;;
29382;SDS011;16365;51.598;7.668;2023-03-24T16:31:06;7.00;;;2.20;;
29382;SDS011;16365;51.598;7.668;2023-03-24T16:33:33;10.55;;;2.10;;
29382;SDS011;16365;51.598;7.668;2023-03-24T16:36:00;9.35;;;2.45;;
29382;SDS011;16365;51.598;7.668;2023-03-24T16:38:27;6.50;;;2.40;;
29382;SDS011;16365;51.598;7.668;2023-03-24T16:40:54;9.63;;;2.47;;
29382;SDS011;16365;51.598;7.668;2023-03-24T16:43:23;14.18;;;3.00;;
29382;SDS011;16365;51.598;7.668;2023-03-24T16:45:50;7.03;;;2.55;;
29382;SDS011;16365;51.598;7.668;2023-03-24T16:48:17;6.82;;;2.28;;
29382;SDS011;16365;51.598;7.668;2023-03-24T16:50:44;6.03;;;2.30;;
29382;SDS011;16365;51.598;7.668;2023-03-24T16:53:16;4.85;;;2.17;;
29382;SDS011;16365;51.598;7.668;2023-03-24T16:55:46;6.25;;;1.88;;
29382;SDS011;16365;51.598;7.668;2023-03-24T16:58:13;2.40;;;1.00;;
29382;SDS011;16365;51.598;7.668;2023-03-24T17:00:44;3.03;;;1.13;;
29382;SDS011;16365;51.598;7.668;2023-03-24T17:03:11;4.05;;;1.10;;
29382;SDS011;16365;51.598;7.668;2023-03-24T17:05:46;2.70;;;0.90;;
29382;SDS011;16365;51.598;7.668;2023-03-24T17:08:15;3.83;;;1.77;;
29382;SDS011;16365;51.598;7.668;2023-03-24T17:10:44;3.53;;;1.08;;
29382;SDS011;16365;51.598;7.668;2023-03-24T17:13:15;1.90;;;1.13;;
29382;SDS011;16365;51.598;7.668;2023-03-24T17:15:43;3.13;;;1.40;;
29382;SDS011;16365;51.598;7.668;2023-03-24T17:18:10;3.72;;;1.48;;
29382;SDS011;16365;51.598;7.668;2023-03-24T17:20:37;7.38;;;2.90;;
29382;SDS011;16365;51.598;7.668;2023-03-24T17:23:07;6.07;;;1.80;;
29382;SDS011;16365;51.598;7.668;2023-03-24T17:25:36;5.63;;;1.73;;
29382;SDS011;16365;51.598;7.668;2023-03-24T17:28:05;4.95;;;1.70;;
29382;SDS011;16365;51.598;7.668;2023-03-24T17:30:37;3.13;;;2.08;;